sensor_id;sensor_type;location;lat;lon;timestamp;pressure;altitude;pressure_sealevel;temperature;humidity
28921;BME280;16035;53.594;9.952;2023-08-08T00:00:14;100733.75;;;14.92;67.11
28921;BME280;16035;53.594;9.952;2023-08-08T00:02:14;100742.22;;;14.90;67.39
28921;BME280;16035;53.594;9.952;2023-08-08T00:04:15;100748.28;;;14.87;67.42
28921;BME280;16035;53.594;9.952;2023-08-08T00:06:15;100734.06;;;14.85;67.28
28921;BME280;16035;53.594;9.952;2023-08-08T00:08:15;100740.34;;;14.86;67.42
28921;BME280;16035;53.594;9.952;2023-08-08T00:10:15;100731.31;;;14.85;67.67
28921;BME280;16035;53.594;9.952;2023-08-08T00:12:16;100733.25;;;14.85;67.75
28921;BME280;16035;53.594;9.952;2023-08-08T00:14:16;100733.59;;;14.78;67.69
28921;BME280;16035;53.594;9.952;2023-08-08T00:16:17;100723.25;;;14.75;67.93
28921;BME280;16035;53.594;9.952;2023-08-08T00:18:17;100721.88;;;14.73;68.40
28921;BME280;16035;53.594;9.952;2023-08-08T00:20:17;100729.56;;;14.71;68.25
28921;BME280;16035;53.594;9.952;2023-08-08T00:22:17;100721.63;;;14.74;68.52
28921;BME280;16035;53.594;9.952;2023-08-08T00:24:18;100721.63;;;14.74;68.30
28921;BME280;16035;53.594;9.952;2023-08-08T00:26:18;100717.53;;;14.72;68.66
28921;BME280;16035;53.594;9.952;2023-08-08T00:28:19;100727.72;;;14.66;68.28
28921;BME280;16035;53.594;9.952;2023-08-08T00:30:19;100726.59;;;14.67;68.87
28921;BME280;16035;53.594;9.952;2023-08-08T00:32:19;100722.00;;;14.62;68.73
28921;BME280;16035;53.594;9.952;2023-08-08T00:34:20;100707.19;;;14.63;69.22
28921;BME280;16035;53.594;9.952;2023-08-08T00:36:20;100713.28;;;14.60;69.28
28921;BME280;16035;53.594;9.952;2023-08-08T00:38:20;100714.34;;;14.59;69.60
28921;BME280;16035;53.594;9.952;2023-08-08T00:40:21;100698.25;;;14.58;69.16
28921;BME280;16035;53.594;9.952;2023-08-08T00:42:21;100689.16;;;14.62;69.66
28921;BME280;16035;53.594;9.952;2023-08-08T00:44:21;100690.78;;;14.63;69.79
28921;BME280;16035;53.594;9.952;2023-08-08T00:46:22;100697.38;;;14.62;69.72
28921;BME280;16035;53.594;9.952;2023-08-08T00:48:24;100693.03;;;14.61;69.52
28921;BME280;16035;53.594;9.952;2023-08-08T00:50:25;100699.59;;;14.60;69.87
28921;BME280;16035;53.594;9.952;2023-08-08T00:52:26;100688.66;;;14.60;70.07
28921;BME280;16035;53.594;9.952;2023-08-08T00:54:26;100687.59;;;14.56;69.68
28921;BME280;16035;53.594;9.952;2023-08-08T00:56:27;100683.22;;;14.55;69.67
28921;BME280;16035;53.594;9.952;2023-08-08T00:58:27;100673.38;;;14.54;69.96
28921;BME280;16035;53.594;9.952;2023-08-08T01:00:28;100690.59;;;14.55;69.84
28921;BME280;16035;53.594;9.952;2023-08-08T01:02:28;100681.09;;;14.52;70.13
28921;BME280;16035;53.594;9.952;2023-08-08T01:04:29;100677.22;;;14.53;70.18
28921;BME280;16035;53.594;9.952;2023-08-08T01:06:37;100685.69;;;14.57;70.66
28921;BME280;16035;53.594;9.952;2023-08-08T01:08:56;100680.72;;;14.59;70.63
28921;BME280;16035;53.594;9.952;2023-08-08T01:10:58;100689.22;;;14.57;70.58
28921;BME280;16035;53.594;9.952;2023-08-08T01:13:00;100693.06;;;14.56;70.46
28921;BME280;16035;53.594;9.952;2023-08-08T01:15:04;100688.41;;;14.57;70.50
28921;BME280;16035;53.594;9.952;2023-08-08T01:17:06;100684.88;;;14.56;70.96
28921;BME280;16035;53.594;9.952;2023-08-08T01:19:07;100684.28;;;14.59;70.83
28921;BME280;16035;53.594;9.952;2023-08-08T01:21:11;100678.00;;;14.59;70.60
28921;BME280;16035;53.594;9.952;2023-08-08T01:23:30;100680.72;;;14.59;70.86
28921;BME280;16035;53.594;9.952;2023-08-08T01:25:30;100680.72;;;14.59;70.66
28921;BME280;16035;53.594;9.952;2023-08-08T01:27:31;100668.47;;;14.56;70.68
28921;BME280;16035;53.594;9.952;2023-08-08T01:29:31;100667.41;;;14.52;70.80
28921;BME280;16035;53.594;9.952;2023-08-08T01:31:32;100672.88;;;14.52;71.07
28921;BME280;16035;53.594;9.952;2023-08-08T01:33:33;100668.78;;;14.50;71.46
28921;BME280;16035;53.594;9.952;2023-08-08T01:35:37;100673.72;;;14.48;70.92
28921;BME280;16035;53.594;9.952;2023-08-08T01:37:49;100667.44;;;14.47;71.29
28921;BME280;16035;53.594;9.952;2023-08-08T01:39:50;100667.69;;;14.46;71.50
28921;BME280;16035;53.594;9.952;2023-08-08T01:41:54;100675.63;;;14.47;71.31
28921;BME280;16035;53.594;9.952;2023-08-08T01:43:55;100662.50;;;14.49;71.29
28921;BME280;16035;53.594;9.952;2023-08-08T01:45:56;100666.06;;;14.50;71.22
28921;BME280;16035;53.594;9.952;2023-08-08T01:47:56;100661.16;;;14.47;71.13
28921;BME280;16035;53.594;9.952;2023-08-08T01:49:57;100666.63;;;14.47;71.43
28921;BME280;16035;53.594;9.952;2023-08-08T01:51:57;100670.72;;;14.49;71.48
28921;BME280;16035;53.594;9.952;2023-08-08T01:53:57;100661.97;;;14.47;71.40
28921;BME280;16035;53.594;9.952;2023-08-08T01:55:58;100677.56;;;14.47;71.45
28921;BME280;16035;53.594;9.952;2023-08-08T01:57:58;100670.16;;;14.47;71.57
28921;BME280;16035;53.594;9.952;2023-08-08T01:59:58;100660.88;;;14.48;71.60
28921;BME280;16035;53.594;9.952;2023-08-08T02:01:59;100653.75;;;14.47;71.77
28921;BME280;16035;53.594;9.952;2023-08-08T02:03:59;100656.75;;;14.46;71.40
28921;BME280;16035;53.594;9.952;2023-08-08T02:05:59;100660.88;;;14.48;71.83
28921;BME280;16035;53.594;9.952;2023-08-08T02:07:59;100660.88;;;14.48;71.11
28921;BME280;16035;53.594;9.952;2023-08-08T02:10:00;100657.56;;;14.46;71.29
28921;BME280;16035;53.594;9.952;2023-08-08T02:12:00;100647.75;;;14.45;71.63
28921;BME280;16035;53.594;9.952;2023-08-08T02:14:00;100654.03;;;14.46;71.63
28921;BME280;16035;53.594;9.952;2023-08-08T02:16:01;100665.25;;;14.44;71.56
28921;BME280;16035;53.594;9.952;2023-08-08T02:18:01;100644.50;;;14.43;71.45
28921;BME280;16035;53.594;9.952;2023-08-08T02:20:05;100645.88;;;14.40;71.63
28921;BME280;16035;53.594;9.952;2023-08-08T02:22:05;100641.22;;;14.41;71.38
28921;BME280;16035;53.594;9.952;2023-08-08T02:24:05;100625.63;;;14.41;71.65
28921;BME280;16035;53.594;9.952;2023-08-08T02:26:06;100639.03;;;14.43;71.84
28921;BME280;16035;53.594;9.952;2023-08-08T02:28:06;100640.66;;;14.44;71.41
28921;BME280;16035;53.594;9.952;2023-08-08T02:30:07;100642.88;;;14.42;71.60
28921;BME280;16035;53.594;9.952;2023-08-08T02:32:07;100642.59;;;14.44;71.67
28921;BME280;16035;53.594;9.952;2023-08-08T02:34:08;100648.06;;;14.44;71.31
28921;BME280;16035;53.594;9.952;2023-08-08T02:36:08;100643.69;;;14.43;71.32
28921;BME280;16035;53.594;9.952;2023-08-08T02:38:08;100639.59;;;14.40;71.54
28921;BME280;16035;53.594;9.952;2023-08-08T02:40:09;100639.09;;;14.38;71.59
28921;BME280;16035;53.594;9.952;2023-08-08T02:42:19;100630.59;;;14.39;71.62
28921;BME280;16035;53.594;9.952;2023-08-08T02:44:19;100631.41;;;14.40;71.65
28921;BME280;16035;53.594;9.952;2023-08-08T02:46:19;100630.03;;;14.43;71.96
28921;BME280;16035;53.594;9.952;2023-08-08T02:48:20;100632.75;;;14.43;71.61
28921;BME280;16035;53.594;9.952;2023-08-08T02:50:20;100639.59;;;14.40;71.83
28921;BME280;16035;53.594;9.952;2023-08-08T02:52:21;100637.97;;;14.39;71.68
28921;BME280;16035;53.594;9.952;2023-08-08T02:54:21;100632.22;;;14.40;71.67
28921;BME280;16035;53.594;9.952;2023-08-08T02:56:21;100637.41;;;14.42;72.09
28921;BME280;16035;53.594;9.952;2023-08-08T02:58:22;100631.06;;;14.47;71.76
28921;BME280;16035;53.594;9.952;2023-08-08T03:00:22;100632.44;;;14.49;71.96
28921;BME280;16035;53.594;9.952;2023-08-08T03:02:22;100624.78;;;14.51;71.91
28921;BME280;16035;53.594;9.952;2023-08-08T03:04:23;100622.53;;;14.53;72.06
28921;BME280;16035;53.594;9.952;2023-08-08T03:06:23;100623.91;;;14.56;71.89
28921;BME280;16035;53.594;9.952;2023-08-08T03:08:23;100626.09;;;14.54;71.82
28921;BME280;16035;53.594;9.952;2023-08-08T03:10:25;100617.31;;;14.57;71.96
28921;BME280;16035;53.594;9.952;2023-08-08T03:12:25;100611.31;;;14.55;71.88
28921;BME280;16035;53.594;9.952;2023-08-08T03:14:25;100603.91;;;14.55;71.98
28921;BME280;16035;53.594;9.952;2023-08-08T03:16:26;100613.53;;;14.53;71.84
28921;BME280;16035;53.594;9.952;2023-08-08T03:18:26;100616.56;;;14.51;71.71
28921;BME280;16035;53.594;9.952;2023-08-08T03:20:26;100615.72;;;14.51;71.67
28921;BME280;16035;53.594;9.952;2023-08-08T03:22:27;100604.50;;;14.52;71.58
28921;BME280;16035;53.594;9.952;2023-08-08T03:24:27;100611.59;;;14.53;71.76
28921;BME280;16035;53.594;9.952;2023-08-08T03:26:27;100617.06;;;14.53;71.54
28921;BME280;16035;53.594;9.952;2023-08-08T03:28:28;100614.66;;;14.52;71.71
28921;BME280;16035;53.594;9.952;2023-08-08T03:30:28;100610.25;;;14.51;71.84
28921;BME280;16035;53.594;9.952;2023-08-08T03:32:28;100611.59;;;14.53;71.92
28921;BME280;16035;53.594;9.952;2023-08-08T03:34:29;100607.75;;;14.54;71.60
28921;BME280;16035;53.594;9.952;2023-08-08T03:36:29;100598.22;;;14.52;71.77
28921;BME280;16035;53.594;9.952;2023-08-08T03:38:29;100608.38;;;14.51;71.72
28921;BME280;16035;53.594;9.952;2023-08-08T03:40:30;100603.97;;;14.50;72.36
28921;BME280;16035;53.594;9.952;2023-08-08T03:42:30;100596.31;;;14.52;72.14
28921;BME280;16035;53.594;9.952;2023-08-08T03:44:31;100602.91;;;14.51;72.00
28921;BME280;16035;53.594;9.952;2023-08-08T03:46:31;100599.88;;;14.48;72.02
28921;BME280;16035;53.594;9.952;2023-08-08T03:48:33;100604.53;;;14.47;72.03
28921;BME280;16035;53.594;9.952;2023-08-08T03:50:34;100601.81;;;14.47;72.19
28921;BME280;16035;53.594;9.952;2023-08-08T03:52:34;100605.34;;;14.48;72.55
28921;BME280;16035;53.594;9.952;2023-08-08T03:54:37;100608.38;;;14.51;72.13
28921;BME280;16035;53.594;9.952;2023-08-08T03:56:37;100606.94;;;14.54;72.36
28921;BME280;16035;53.594;9.952;2023-08-08T03:58:38;100609.69;;;14.54;72.02
28921;BME280;16035;53.594;9.952;2023-08-08T04:00:38;100601.19;;;14.55;72.26
28921;BME280;16035;53.594;9.952;2023-08-08T04:02:46;100605.25;;;14.58;72.47
28921;BME280;16035;53.594;9.952;2023-08-08T04:04:46;100612.09;;;14.60;72.04
28921;BME280;16035;53.594;9.952;2023-08-08T04:06:46;100604.38;;;14.62;71.93
28921;BME280;16035;53.594;9.952;2023-08-08T04:08:46;100604.97;;;14.59;71.97
28921;BME280;16035;53.594;9.952;2023-08-08T04:10:47;100602.84;;;14.56;71.79
28921;BME280;16035;53.594;9.952;2023-08-08T04:12:47;100599.28;;;14.56;72.16
28921;BME280;16035;53.594;9.952;2023-08-08T04:14:47;100609.13;;;14.57;72.30
28921;BME280;16035;53.594;9.952;2023-08-08T04:16:48;100598.44;;;14.55;72.13
28921;BME280;16035;53.594;9.952;2023-08-08T04:18:48;100587.22;;;14.57;72.23
28921;BME280;16035;53.594;9.952;2023-08-08T04:20:48;100593.75;;;14.61;72.19
28921;BME280;16035;53.594;9.952;2023-08-08T04:22:49;100577.16;;;14.52;72.11
28921;BME280;16035;53.594;9.952;2023-08-08T04:24:49;100599.56;;;14.54;72.48
28921;BME280;16035;53.594;9.952;2023-08-08T04:26:50;100592.97;;;14.55;72.44
28921;BME280;16035;53.594;9.952;2023-08-08T04:28:50;100597.94;;;14.53;72.32
28921;BME280;16035;53.594;9.952;2023-08-08T04:30:50;100594.69;;;14.51;72.35
28921;BME280;16035;53.594;9.952;2023-08-08T04:32:50;100600.16;;;14.51;72.32
28921;BME280;16035;53.594;9.952;2023-08-08T04:34:51;100592.97;;;14.55;72.23
28921;BME280;16035;53.594;9.952;2023-08-08T04:36:51;100597.06;;;14.58;72.47
28921;BME280;16035;53.594;9.952;2023-08-08T04:38:51;100599.28;;;14.56;71.85
28921;BME280;16035;53.594;9.952;2023-08-08T04:40:52;100594.91;;;14.55;72.01
28921;BME280;16035;53.594;9.952;2023-08-08T04:42:52;100599.56;;;14.54;71.85
28921;BME280;16035;53.594;9.952;2023-08-08T04:44:53;100596.81;;;14.54;72.24
28921;BME280;16035;53.594;9.952;2023-08-08T04:46:53;100597.94;;;14.53;72.29
28921;BME280;16035;53.594;9.952;2023-08-08T04:48:53;100597.94;;;14.53;71.97
28921;BME280;16035;53.594;9.952;2023-08-08T04:50:54;100602.28;;;14.54;71.74
28921;BME280;16035;53.594;9.952;2023-08-08T04:52:54;100594.97;;;14.50;71.79
28921;BME280;16035;53.594;9.952;2023-08-08T04:54:54;100599.88;;;14.48;71.90
28921;BME280;16035;53.594;9.952;2023-08-08T04:56:55;100591.69;;;14.48;72.30
28921;BME280;16035;53.594;9.952;2023-08-08T04:58:55;100609.38;;;14.55;72.12
28921;BME280;16035;53.594;9.952;2023-08-08T05:00:55;100601.97;;;14.61;71.77
28921;BME280;16035;53.594;9.952;2023-08-08T05:02:56;100591.84;;;14.61;71.23
28921;BME280;16035;53.594;9.952;2023-08-08T05:04:56;100586.34;;;14.61;71.55
28921;BME280;16035;53.594;9.952;2023-08-08T05:06:56;100589.03;;;14.66;72.02
28921;BME280;16035;53.594;9.952;2023-08-08T05:08:57;100586.59;;;14.65;71.79
28921;BME280;16035;53.594;9.952;2023-08-08T05:10:58;100584.38;;;14.67;72.15
28921;BME280;16035;53.594;9.952;2023-08-08T05:12:58;100588.47;;;14.70;71.91
28921;BME280;16035;53.594;9.952;2023-08-08T05:14:58;100584.59;;;14.71;71.78
28921;BME280;16035;53.594;9.952;2023-08-08T05:16:59;100583.66;;;14.80;71.93
28921;BME280;16035;53.594;9.952;2023-08-08T05:18:59;100587.75;;;14.83;71.48
28921;BME280;16035;53.594;9.952;2023-08-08T05:20:59;100582.78;;;14.85;71.58
28921;BME280;16035;53.594;9.952;2023-08-08T05:23:00;100589.28;;;14.89;71.70
28921;BME280;16035;53.594;9.952;2023-08-08T05:25:00;100583.25;;;14.92;71.39
28921;BME280;16035;53.594;9.952;2023-08-08T05:27:01;100590.84;;;14.95;71.43
28921;BME280;16035;53.594;9.952;2023-08-08T05:29:01;100587.22;;;15.00;71.30
28921;BME280;16035;53.594;9.952;2023-08-08T05:31:01;100582.00;;;15.03;71.18
28921;BME280;16035;53.594;9.952;2023-08-08T05:33:02;100589.91;;;15.05;71.36
28921;BME280;16035;53.594;9.952;2023-08-08T05:35:02;100590.72;;;15.05;71.31
28921;BME280;16035;53.594;9.952;2023-08-08T05:37:04;100587.63;;;15.12;71.31
28921;BME280;16035;53.594;9.952;2023-08-08T05:39:04;100590.50;;;15.21;71.21
28921;BME280;16035;53.594;9.952;2023-08-08T05:41:07;100588.22;;;15.28;71.24
28921;BME280;16035;53.594;9.952;2023-08-08T05:43:07;100586.53;;;15.32;71.10
28921;BME280;16035;53.594;9.952;2023-08-08T05:45:08;100592.72;;;15.37;70.84
28921;BME280;16035;53.594;9.952;2023-08-08T05:47:09;100592.44;;;15.39;70.67
28921;BME280;16035;53.594;9.952;2023-08-08T05:49:09;100583.41;;;15.38;70.51
28921;BME280;16035;53.594;9.952;2023-08-08T05:51:09;100591.94;;;15.37;70.42
28921;BME280;16035;53.594;9.952;2023-08-08T05:53:10;100586.44;;;15.37;70.55
28921;BME280;16035;53.594;9.952;2023-08-08T05:55:10;100584.53;;;15.37;70.61
28921;BME280;16035;53.594;9.952;2023-08-08T05:57:10;100585.56;;;15.41;70.68
28921;BME280;16035;53.594;9.952;2023-08-08T05:59:11;100581.13;;;15.46;70.62
28921;BME280;16035;53.594;9.952;2023-08-08T06:01:11;100572.81;;;15.51;70.66
28921;BME280;16035;53.594;9.952;2023-08-08T06:03:12;100578.53;;;15.54;70.53
28921;BME280;16035;53.594;9.952;2023-08-08T06:05:12;100583.91;;;15.59;70.31
28921;BME280;16035;53.594;9.952;2023-08-08T06:07:13;100586.66;;;15.59;70.56
28921;BME280;16035;53.594;9.952;2023-08-08T06:09:13;100588.59;;;15.59;70.07
28921;BME280;16035;53.594;9.952;2023-08-08T06:11:13;100593.25;;;15.58;70.07
28921;BME280;16035;53.594;9.952;2023-08-08T06:13:13;100589.97;;;15.56;70.24
28921;BME280;16035;53.594;9.952;2023-08-08T06:15:14;100596.50;;;15.60;70.42
28921;BME280;16035;53.594;9.952;2023-08-08T06:17:14;100593.44;;;15.62;70.40
28921;BME280;16035;53.594;9.952;2023-08-08T06:19:14;100603.03;;;15.64;70.31
28921;BME280;16035;53.594;9.952;2023-08-08T06:21:15;100600.03;;;15.61;70.30
28921;BME280;16035;53.594;9.952;2023-08-08T06:23:16;100598.91;;;15.62;70.36
28921;BME280;16035;53.594;9.952;2023-08-08T06:25:16;100592.88;;;15.65;70.19
28921;BME280;16035;53.594;9.952;2023-08-08T06:27:17;100579.47;;;15.63;70.39
28921;BME280;16035;53.594;9.952;2023-08-08T06:29:17;100588.44;;;15.69;70.48
28921;BME280;16035;53.594;9.952;2023-08-08T06:31:18;100590.41;;;15.82;70.77
28921;BME280;16035;53.594;9.952;2023-08-08T06:33:19;100589.09;;;15.93;70.30
28921;BME280;16035;53.594;9.952;2023-08-08T06:35:19;100591.25;;;15.97;69.96
28921;BME280;16035;53.594;9.952;2023-08-08T06:37:20;100578.38;;;15.97;69.80
28921;BME280;16035;53.594;9.952;2023-08-08T06:39:20;100584.47;;;15.94;69.76
28921;BME280;16035;53.594;9.952;2023-08-08T06:41:21;100599.06;;;15.89;69.75
28921;BME280;16035;53.594;9.952;2023-08-08T06:43:22;100598.44;;;15.92;69.88
28921;BME280;16035;53.594;9.952;2023-08-08T06:45:22;100587.22;;;15.94;69.54
28921;BME280;16035;53.594;9.952;2023-08-08T06:47:22;100580.28;;;15.97;69.98
28921;BME280;16035;53.594;9.952;2023-08-08T06:49:23;100583.25;;;16.00;69.95
28921;BME280;16035;53.594;9.952;2023-08-08T06:51:24;100585.41;;;16.03;70.21
28921;BME280;16035;53.594;9.952;2023-08-08T06:53:25;100582.03;;;16.06;69.80
28921;BME280;16035;53.594;9.952;2023-08-08T06:55:25;100578.81;;;16.18;69.58
28921;BME280;16035;53.594;9.952;2023-08-08T06:59:30;100563.63;;;16.39;69.35
28921;BME280;16035;53.594;9.952;2023-08-08T07:01:30;100573.66;;;16.44;69.25
28921;BME280;16035;53.594;9.952;2023-08-08T07:03:31;100575.88;;;16.56;69.43
28921;BME280;16035;53.594;9.952;2023-08-08T07:05:31;100574.91;;;16.65;69.02
28921;BME280;16035;53.594;9.952;2023-08-08T07:07:32;100579.25;;;16.66;68.70
28921;BME280;16035;53.594;9.952;2023-08-08T07:09:33;100578.25;;;16.62;68.69
28921;BME280;16035;53.594;9.952;2023-08-08T07:11:33;100578.84;;;16.87;68.72
28921;BME280;16035;53.594;9.952;2023-08-08T07:13:34;100575.19;;;17.28;67.58
28921;BME280;16035;53.594;9.952;2023-08-08T07:15:34;100570.75;;;17.18;66.87
28921;BME280;16035;53.594;9.952;2023-08-08T07:17:35;100558.56;;;17.24;67.40
28921;BME280;16035;53.594;9.952;2023-08-08T07:19:36;100569.44;;;17.52;66.84
28921;BME280;16035;53.594;9.952;2023-08-08T07:21:36;100561.84;;;17.35;66.88
28921;BME280;16035;53.594;9.952;2023-08-08T07:23:36;100560.50;;;17.24;66.56
28921;BME280;16035;53.594;9.952;2023-08-08T07:25:37;100555.00;;;17.10;65.93
28921;BME280;16035;53.594;9.952;2023-08-08T07:27:37;100563.38;;;17.05;66.08
28921;BME280;16035;53.594;9.952;2023-08-08T07:29:37;100554.44;;;16.99;66.44
28921;BME280;16035;53.594;9.952;2023-08-08T07:31:38;100554.22;;;16.96;66.13
28921;BME280;16035;53.594;9.952;2023-08-08T07:33:38;100548.94;;;16.99;66.58
28921;BME280;16035;53.594;9.952;2023-08-08T07:35:39;100544.97;;;17.05;66.70
28921;BME280;16035;53.594;9.952;2023-08-08T07:37:39;100533.25;;;17.13;66.42
28921;BME280;16035;53.594;9.952;2023-08-08T07:39:39;100559.16;;;17.21;66.02
28921;BME280;16035;53.594;9.952;2023-08-08T07:41:40;100548.25;;;17.30;66.34
28921;BME280;16035;53.594;9.952;2023-08-08T07:43:40;100545.78;;;17.42;66.14
28921;BME280;16035;53.594;9.952;2023-08-08T07:45:41;100542.44;;;17.54;65.98
28921;BME280;16035;53.594;9.952;2023-08-08T07:47:43;100539.81;;;17.71;66.14
28921;BME280;16035;53.594;9.952;2023-08-08T07:49:43;100532.22;;;17.90;65.83
28921;BME280;16035;53.594;9.952;2023-08-08T07:51:43;100529.38;;;18.04;65.66
28921;BME280;16035;53.594;9.952;2023-08-08T07:53:44;100540.69;;;18.03;65.05
28921;BME280;16035;53.594;9.952;2023-08-08T07:55:44;100547.88;;;17.90;65.05
28921;BME280;16035;53.594;9.952;2023-08-08T07:57:45;100546.84;;;17.77;64.87
28921;BME280;16035;53.594;9.952;2023-08-08T07:59:45;100538.91;;;17.76;65.38
28921;BME280;16035;53.594;9.952;2023-08-08T08:01:45;100533.94;;;17.78;65.43
28921;BME280;16035;53.594;9.952;2023-08-08T08:03:46;100532.16;;;17.82;65.07
28921;BME280;16035;53.594;9.952;2023-08-08T08:05:47;100533.66;;;17.88;65.51
28921;BME280;16035;53.594;9.952;2023-08-08T08:07:47;100522.03;;;17.91;65.40
28921;BME280;16035;53.594;9.952;2023-08-08T08:09:47;100526.53;;;17.87;65.40
28921;BME280;16035;53.594;9.952;2023-08-08T08:11:48;100522.97;;;17.86;65.46
28921;BME280;16035;53.594;9.952;2023-08-08T08:13:48;100523.78;;;17.87;65.79
28921;BME280;16035;53.594;9.952;2023-08-08T08:15:48;100522.16;;;17.86;65.90
28921;BME280;16035;53.594;9.952;2023-08-08T08:17:49;100541.28;;;17.68;65.06
28921;BME280;16035;53.594;9.952;2023-08-08T08:19:52;100541.97;;;17.52;65.48
28921;BME280;16035;53.594;9.952;2023-08-08T08:21:52;100535.59;;;17.42;65.90
28921;BME280;16035;53.594;9.952;2023-08-08T08:23:52;100547.19;;;17.39;66.06
28921;BME280;16035;53.594;9.952;2023-08-08T08:25:53;100545.38;;;17.35;65.92
28921;BME280;16035;53.594;9.952;2023-08-08T08:27:53;100559.13;;;17.35;66.04
28921;BME280;16035;53.594;9.952;2023-08-08T08:29:53;100548.13;;;17.35;65.90
28921;BME280;16035;53.594;9.952;2023-08-08T08:31:54;100556.69;;;17.33;65.82
28921;BME280;16035;53.594;9.952;2023-08-08T08:33:54;100564.13;;;17.33;65.99
28921;BME280;16035;53.594;9.952;2023-08-08T08:35:57;100575.09;;;17.33;65.69
28921;BME280;16035;53.594;9.952;2023-08-08T08:37:58;100572.44;;;17.28;65.13
28921;BME280;16035;53.594;9.952;2023-08-08T08:39:59;100587.94;;;17.24;64.59
28921;BME280;16035;53.594;9.952;2023-08-08T08:42:00;100573.13;;;17.11;64.86
28921;BME280;16035;53.594;9.952;2023-08-08T08:44:05;100575.78;;;17.02;64.38
28921;BME280;16035;53.594;9.952;2023-08-08T08:46:11;100575.69;;;16.93;64.59
28921;BME280;16035;53.594;9.952;2023-08-08T08:48:12;100576.50;;;16.94;65.00
28921;BME280;16035;53.594;9.952;2023-08-08T08:50:17;100573.78;;;16.94;64.80
28921;BME280;16035;53.594;9.952;2023-08-08T08:52:18;100574.47;;;17.00;64.45
28921;BME280;16035;53.594;9.952;2023-08-08T08:54:19;100570.06;;;17.12;64.44
28921;BME280;16035;53.594;9.952;2023-08-08T08:56:20;100571.97;;;17.26;64.82
28921;BME280;16035;53.594;9.952;2023-08-08T08:58:21;100575.78;;;17.38;64.73
28921;BME280;16035;53.594;9.952;2023-08-08T09:00:21;100593.06;;;17.39;64.05
28921;BME280;16035;53.594;9.952;2023-08-08T09:02:22;100577.84;;;17.33;63.34
28921;BME280;16035;53.594;9.952;2023-08-08T09:04:23;100573.38;;;17.23;63.22
28921;BME280;16035;53.594;9.952;2023-08-08T09:06:24;100571.47;;;17.24;63.70
28921;BME280;16035;53.594;9.952;2023-08-08T09:08:25;100574.50;;;17.22;63.68
28921;BME280;16035;53.594;9.952;2023-08-08T09:10:26;100584.47;;;17.18;63.50
28921;BME280;16035;53.594;9.952;2023-08-08T09:12:27;100579.63;;;17.15;63.16
28921;BME280;16035;53.594;9.952;2023-08-08T09:14:27;100586.53;;;17.12;63.39
28921;BME280;16035;53.594;9.952;2023-08-08T09:16:28;100576.38;;;17.13;63.59
28921;BME280;16035;53.594;9.952;2023-08-08T09:18:30;100586.81;;;17.25;63.65
28921;BME280;16035;53.594;9.952;2023-08-08T09:20:32;100594.94;;;17.30;63.18
28921;BME280;16035;53.594;9.952;2023-08-08T09:22:32;100578.66;;;17.33;63.13
28921;BME280;16035;53.594;9.952;2023-08-08T09:24:38;100572.34;;;17.33;63.04
28921;BME280;16035;53.594;9.952;2023-08-08T09:26:40;100583.22;;;17.38;63.12
28921;BME280;16035;53.594;9.952;2023-08-08T09:28:40;100580.03;;;17.44;63.03
28921;BME280;16035;53.594;9.952;2023-08-08T09:30:41;100590.81;;;17.55;62.93
28921;BME280;16035;53.594;9.952;2023-08-08T09:32:43;100592.91;;;17.58;63.04
28921;BME280;16035;53.594;9.952;2023-08-08T09:34:44;100588.66;;;17.52;62.47
28921;BME280;16035;53.594;9.952;2023-08-08T09:36:44;100579.53;;;17.42;62.60
28921;BME280;16035;53.594;9.952;2023-08-08T09:38:45;100584.16;;;17.33;62.77
28921;BME280;16035;53.594;9.952;2023-08-08T09:40:45;100590.78;;;17.32;62.88
28921;BME280;16035;53.594;9.952;2023-08-08T09:42:46;100593.63;;;17.27;62.82
28921;BME280;16035;53.594;9.952;2023-08-08T09:44:47;100585.72;;;17.12;62.61
28921;BME280;16035;53.594;9.952;2023-08-08T09:46:48;100589.00;;;17.00;63.26
28921;BME280;16035;53.594;9.952;2023-08-08T09:48:49;100585.16;;;16.87;63.61
28921;BME280;16035;53.594;9.952;2023-08-08T09:50:50;100587.38;;;16.72;63.39
28921;BME280;16035;53.594;9.952;2023-08-08T09:52:50;100584.22;;;16.64;64.04
28921;BME280;16035;53.594;9.952;2023-08-08T09:54:53;100581.91;;;16.58;64.64
28921;BME280;16035;53.594;9.952;2023-08-08T09:56:54;100584.53;;;16.49;64.41
28921;BME280;16035;53.594;9.952;2023-08-08T09:58:55;100584.13;;;16.42;65.04
28921;BME280;16035;53.594;9.952;2023-08-08T10:00:56;100592.97;;;16.39;65.31
28921;BME280;16035;53.594;9.952;2023-08-08T10:02:57;100607.28;;;16.36;65.63
28921;BME280;16035;53.594;9.952;2023-08-08T10:04:59;100609.00;;;16.32;65.77
28921;BME280;16035;53.594;9.952;2023-08-08T10:06:59;100595.88;;;16.29;66.11
28921;BME280;16035;53.594;9.952;2023-08-08T10:09:01;100595.88;;;16.29;66.34
28921;BME280;16035;53.594;9.952;2023-08-08T10:11:02;100603.63;;;16.27;66.58
28921;BME280;16035;53.594;9.952;2023-08-08T10:13:03;100599.75;;;16.28;66.94
28921;BME280;16035;53.594;9.952;2023-08-08T10:15:08;100587.38;;;16.30;67.15
28921;BME280;16035;53.594;9.952;2023-08-08T10:17:13;100586.97;;;16.37;67.20
28921;BME280;16035;53.594;9.952;2023-08-08T10:19:13;100570.00;;;16.35;67.48
28921;BME280;16035;53.594;9.952;2023-08-08T10:21:14;100573.84;;;16.34;67.64
28921;BME280;16035;53.594;9.952;2023-08-08T10:23:15;100584.31;;;16.32;67.31
28921;BME280;16035;53.594;9.952;2023-08-08T10:25:33;100582.50;;;16.27;67.77
28921;BME280;16035;53.594;9.952;2023-08-08T10:27:36;100587.25;;;16.22;67.87
28921;BME280;16035;53.594;9.952;2023-08-08T10:29:38;100594.25;;;16.14;67.96
28921;BME280;16035;53.594;9.952;2023-08-08T10:31:39;100582.97;;;16.15;68.44
28921;BME280;16035;53.594;9.952;2023-08-08T10:33:41;100585.94;;;16.33;68.75